createdAt,value
2023-01-03T00:01:22.727Z,7.40
2023-01-03T00:03:49.746Z,7.34
2023-01-03T00:06:25.603Z,7.35
2023-01-03T00:08:53.658Z,7.31
2023-01-03T00:11:43.402Z,7.23
2023-01-03T00:14:12.282Z,7.27
2023-01-03T00:16:39.380Z,7.23
2023-01-03T00:19:14.325Z,7.29
2023-01-03T00:21:42.515Z,7.28
2023-01-03T00:24:10.392Z,7.27
2023-01-03T00:26:37.889Z,7.24
2023-01-03T00:29:04.793Z,7.27
2023-01-03T00:31:31.467Z,7.33
2023-01-03T00:33:58.137Z,7.38
2023-01-03T00:36:24.931Z,7.33
2023-01-03T00:38:51.588Z,7.18
2023-01-03T00:41:19.441Z,7.23
2023-01-03T00:43:48.182Z,7.29
2023-01-03T00:46:16.946Z,7.33
2023-01-03T00:48:44.200Z,7.28
2023-01-03T00:51:17.480Z,7.20
2023-01-03T00:53:46.290Z,7.18
2023-01-03T00:56:15.347Z,7.21
2023-01-03T00:58:42.502Z,7.21
2023-01-03T01:01:42.482Z,7.23
2023-01-03T01:04:22.111Z,7.20
2023-01-03T01:06:51.985Z,7.20
2023-01-03T01:09:27.363Z,7.21
2023-01-03T01:11:55.155Z,7.17
2023-01-03T01:14:30.333Z,7.19
2023-01-03T01:17:02.835Z,7.17
2023-01-03T01:19:47.611Z,7.13
2023-01-03T01:22:14.345Z,7.11
2023-01-03T01:24:41.879Z,7.14
2023-01-03T01:27:08.641Z,7.14
2023-01-03T01:29:35.713Z,7.17
2023-01-03T01:32:03.155Z,7.18
2023-01-03T01:34:30.430Z,7.15
2023-01-03T01:36:57.349Z,7.14
2023-01-03T01:39:27.595Z,7.12
2023-01-03T01:42:19.801Z,7.15
2023-01-03T01:44:55.425Z,7.16
2023-01-03T01:47:24.978Z,7.16
2023-01-03T01:50:15.130Z,7.18
2023-01-03T01:52:48.177Z,7.18
2023-01-03T01:55:20.774Z,7.22
2023-01-03T01:57:48.033Z,7.22
2023-01-03T02:00:15.003Z,7.24
2023-01-03T02:02:43.910Z,7.23
2023-01-03T02:05:11.445Z,7.21
2023-01-03T02:07:38.978Z,7.18
2023-01-03T02:10:06.398Z,7.15
2023-01-03T02:13:06.991Z,7.15
2023-01-03T02:15:39.195Z,7.16
2023-01-03T02:18:26.474Z,7.14
2023-01-03T02:21:02.160Z,7.08
2023-01-03T02:23:41.033Z,7.08
2023-01-03T02:26:32.587Z,7.10
2023-01-03T02:29:30.121Z,7.08
2023-01-03T02:32:02.614Z,7.09
2023-01-03T02:34:29.160Z,7.16
2023-01-03T02:36:58.771Z,7.16
2023-01-03T02:39:25.612Z,7.10
2023-01-03T02:42:32.839Z,7.08
2023-01-03T02:45:14.465Z,7.02
2023-01-03T02:47:52.069Z,6.98
2023-01-03T02:50:24.948Z,6.96
2023-01-03T02:52:55.155Z,6.91
2023-01-03T02:55:26.104Z,6.89
2023-01-03T02:58:00.990Z,6.82
2023-01-03T03:00:30.802Z,6.81
2023-01-03T03:03:06.599Z,6.85
2023-01-03T03:05:48.098Z,6.83
2023-01-03T03:08:14.825Z,6.86
2023-01-03T03:11:00.934Z,6.86
2023-01-03T03:13:40.610Z,6.81
2023-01-03T03:16:43.870Z,6.74
2023-01-03T03:19:49.942Z,6.63
2023-01-03T03:22:54.999Z,6.58
2023-01-03T03:25:26.396Z,6.56
2023-01-03T03:28:17.118Z,6.55
2023-01-03T03:30:46.095Z,6.59
2023-01-03T03:33:15.533Z,6.52
2023-01-03T03:35:50.954Z,6.48
2023-01-03T03:38:25.685Z,6.43
2023-01-03T03:41:31.047Z,6.36
2023-01-03T03:44:43.248Z,6.31
2023-01-03T03:47:16.565Z,6.28
2023-01-03T03:49:47.314Z,6.31
2023-01-03T03:52:17.197Z,6.24
2023-01-03T03:54:58.391Z,6.25
2023-01-03T03:57:33.824Z,6.21
2023-01-03T04:00:07.031Z,6.15
2023-01-03T04:02:36.342Z,6.10
2023-01-03T04:05:08.426Z,6.09
2023-01-03T04:07:35.228Z,6.12
2023-01-03T04:10:01.962Z,6.08
2023-01-03T04:12:28.718Z,6.05
2023-01-03T04:14:55.425Z,6.07
2023-01-03T04:17:22.134Z,6.05
2023-01-03T04:19:48.766Z,6.00
2023-01-03T04:22:15.374Z,5.97
2023-01-03T04:24:42.890Z,5.93
2023-01-03T04:27:09.492Z,5.93
2023-01-03T04:29:39.393Z,5.91
2023-01-03T04:32:08.222Z,5.85
2023-01-03T04:34:34.988Z,5.80
2023-01-03T04:37:01.620Z,5.77
2023-01-03T04:39:28.257Z,5.74
2023-01-03T04:41:54.844Z,5.77
2023-01-03T04:44:21.427Z,5.71
2023-01-03T04:46:52.757Z,5.67
2023-01-03T04:49:20.374Z,5.62
2023-01-03T04:51:46.975Z,5.53
2023-01-03T04:54:13.592Z,5.44
2023-01-03T04:56:40.256Z,5.37
2023-01-03T04:59:06.921Z,5.29
2023-01-03T05:01:34.055Z,5.22
2023-01-03T05:04:01.975Z,5.15
2023-01-03T05:06:29.042Z,5.10
2023-01-03T05:08:55.958Z,5.00
2023-01-03T05:11:23.306Z,5.02
2023-01-03T05:13:50.007Z,4.97
2023-01-03T05:16:16.898Z,4.91
2023-01-03T05:18:43.664Z,4.89
2023-01-03T05:21:37.165Z,4.85
2023-01-03T05:24:23.816Z,4.78
2023-01-03T05:26:51.666Z,4.72
2023-01-03T05:29:21.414Z,4.69
2023-01-03T05:31:49.012Z,4.67
2023-01-03T05:34:15.871Z,4.69
2023-01-03T05:36:42.701Z,4.72
2023-01-03T05:39:09.421Z,4.60
2023-01-03T05:41:54.392Z,4.55
2023-01-03T05:44:21.231Z,4.45
2023-01-03T05:46:48.006Z,4.38
2023-01-03T05:49:14.802Z,4.38
2023-01-03T05:51:42.708Z,4.46
2023-01-03T05:54:14.022Z,4.46
2023-01-03T05:56:40.716Z,4.50
2023-01-03T05:59:10.768Z,4.45
2023-01-03T06:01:37.657Z,4.44
2023-01-03T06:04:04.572Z,4.46
2023-01-03T06:06:31.280Z,4.44
2023-01-03T06:08:59.080Z,4.43
2023-01-03T06:11:25.685Z,4.34
2023-01-03T06:13:53.076Z,4.30
2023-01-03T06:16:39.342Z,4.35
2023-01-03T06:19:07.582Z,4.36
2023-01-03T06:21:35.120Z,4.27
2023-01-03T06:24:02.110Z,4.27
2023-01-03T06:26:29.248Z,4.28
2023-01-03T06:28:56.288Z,4.26
2023-01-03T06:31:23.053Z,4.24
2023-01-03T06:33:49.963Z,4.25
2023-01-03T06:36:19.872Z,4.17
2023-01-03T06:38:46.777Z,4.16
2023-01-03T06:41:14.782Z,4.16
2023-01-03T06:43:42.077Z,4.13
2023-01-03T06:46:29.595Z,4.13
2023-01-03T06:49:14.741Z,4.05
2023-01-03T06:52:00.211Z,4.03
2023-01-03T06:54:36.006Z,4.01
2023-01-03T06:57:03.053Z,3.91
2023-01-03T06:59:29.714Z,3.85
2023-01-03T07:01:56.510Z,3.81
2023-01-03T07:04:24.926Z,3.81
2023-01-03T07:06:51.737Z,3.81
2023-01-03T07:09:18.378Z,3.81
2023-01-03T07:11:45.316Z,3.71
2023-01-03T07:14:12.296Z,3.64
2023-01-03T07:16:40.144Z,3.64
2023-01-03T07:19:08.737Z,3.69
2023-01-03T07:21:36.653Z,3.73
2023-01-03T07:24:05.130Z,3.71
2023-01-03T07:26:33.812Z,3.69
2023-01-03T07:29:02.735Z,3.53
2023-01-03T07:31:29.531Z,3.47
2023-01-03T07:33:57.210Z,3.48
2023-01-03T07:36:23.928Z,3.44
2023-01-03T07:38:50.745Z,3.44
2023-01-03T07:41:18.255Z,3.43
2023-01-03T07:43:48.087Z,3.41
2023-01-03T07:46:24.452Z,3.33
2023-01-03T07:48:55.082Z,3.33
2023-01-03T07:51:22.411Z,3.40
2023-01-03T07:53:53.478Z,3.43
2023-01-03T07:56:22.406Z,3.38
2023-01-03T07:58:49.689Z,3.33
2023-01-03T08:01:19.213Z,3.29
2023-01-03T08:03:46.276Z,3.29
2023-01-03T08:06:15.239Z,3.30
2023-01-03T08:08:42.920Z,3.35
2023-01-03T08:11:33.031Z,3.35
2023-01-03T08:14:00.226Z,3.40
2023-01-03T08:16:27.292Z,3.41
2023-01-03T08:18:54.869Z,3.38
2023-01-03T08:21:21.503Z,3.39
2023-01-03T08:23:49.043Z,3.43
2023-01-03T08:26:17.143Z,3.49
2023-01-03T08:28:44.451Z,3.60
2023-01-03T08:31:32.754Z,3.66
2023-01-03T08:34:10.421Z,3.68
2023-01-03T08:36:49.518Z,3.71
2023-01-03T08:39:21.353Z,3.78
2023-01-03T08:41:57.478Z,3.81
2023-01-03T08:44:25.122Z,3.87
2023-01-03T08:46:54.766Z,3.88
2023-01-03T08:49:21.934Z,3.89
2023-01-03T08:51:48.666Z,3.98
2023-01-03T08:54:15.285Z,4.04
2023-01-03T08:56:42.033Z,4.11
2023-01-03T08:59:09.043Z,4.12
2023-01-03T09:01:35.755Z,4.21
2023-01-03T09:04:02.533Z,4.23
2023-01-03T09:06:29.182Z,4.27
2023-01-03T09:08:55.770Z,4.30
2023-01-03T09:11:22.365Z,4.38
2023-01-03T09:13:48.978Z,4.43
2023-01-03T09:16:16.893Z,4.47
2023-01-03T09:18:43.903Z,4.55
2023-01-03T09:21:10.653Z,4.65
2023-01-03T09:23:37.783Z,4.70
2023-01-03T09:26:05.351Z,4.75
2023-01-03T09:28:32.264Z,4.79
2023-01-03T09:30:58.871Z,4.81
2023-01-03T09:33:25.626Z,4.84
2023-01-03T09:35:54.608Z,4.87
2023-01-03T09:38:22.719Z,4.98
2023-01-03T09:40:58.639Z,5.03
2023-01-03T09:43:30.517Z,5.10
2023-01-03T09:45:58.651Z,5.12
2023-01-03T09:48:39.952Z,5.16
2023-01-03T09:51:46.965Z,5.20
2023-01-03T09:54:36.545Z,5.24
2023-01-03T09:57:28.475Z,5.31
2023-01-03T10:00:14.317Z,5.37
2023-01-03T10:03:25.280Z,5.46
2023-01-03T10:06:22.332Z,5.46
2023-01-03T10:08:57.772Z,5.50
2023-01-03T10:11:46.705Z,5.59
2023-01-03T10:14:43.227Z,5.69
2023-01-03T10:17:43.237Z,5.74
2023-01-03T10:20:33.379Z,5.75
2023-01-03T10:23:00.908Z,5.80
2023-01-03T10:25:29.016Z,5.90
2023-01-03T10:28:02.599Z,5.99
2023-01-03T10:30:53.848Z,5.98
2023-01-03T10:33:42.615Z,6.07
2023-01-03T10:36:09.789Z,6.14
2023-01-03T10:38:44.823Z,6.15
2023-01-03T10:41:45.106Z,6.23
2023-01-03T10:44:27.607Z,6.27
2023-01-03T10:46:56.433Z,6.32
2023-01-03T10:49:27.973Z,6.34
2023-01-03T10:51:57.328Z,6.44
2023-01-03T10:54:30.043Z,6.58
2023-01-03T10:56:56.895Z,6.64
2023-01-03T10:59:23.518Z,6.72
2023-01-03T11:01:59.286Z,6.83
2023-01-03T11:04:26.898Z,6.92
2023-01-03T11:06:59.435Z,6.97
2023-01-03T11:09:32.676Z,7.03
2023-01-03T11:12:12.424Z,7.12
2023-01-03T11:14:39.171Z,7.27
2023-01-03T11:17:06.787Z,7.38
2023-01-03T11:19:34.246Z,7.36
2023-01-03T11:22:05.380Z,7.38
2023-01-03T11:24:39.743Z,7.43
2023-01-03T11:27:29.972Z,7.48
2023-01-03T11:30:08.530Z,7.46
2023-01-03T11:32:51.674Z,7.54
2023-01-03T11:35:37.066Z,7.65
2023-01-03T11:38:26.345Z,7.75
2023-01-03T11:41:22.244Z,7.83
2023-01-03T11:44:16.639Z,8.00
2023-01-03T11:47:27.883Z,8.13
2023-01-03T11:50:15.756Z,8.04
2023-01-03T11:52:54.953Z,7.93
2023-01-03T11:55:45.892Z,7.68
2023-01-03T11:58:47.888Z,7.55
2023-01-03T12:01:41.763Z,7.40
2023-01-03T12:04:29.328Z,7.39
2023-01-03T12:10:14.000Z,7.36
2023-01-03T12:13:02.234Z,7.43
2023-01-03T12:15:47.447Z,7.52
2023-01-03T12:18:27.601Z,7.51
2023-01-03T12:21:14.142Z,7.38
2023-01-03T12:23:43.411Z,7.58
2023-01-03T12:26:15.381Z,7.55
2023-01-03T12:29:11.194Z,7.46
2023-01-03T12:31:40.884Z,7.46
2023-01-03T12:34:14.066Z,7.53
2023-01-03T12:37:06.075Z,7.60
2023-01-03T12:39:56.675Z,7.63
2023-01-03T12:42:29.317Z,7.60
2023-01-03T12:45:04.418Z,7.72
2023-01-03T12:47:46.169Z,7.65
2023-01-03T12:50:21.491Z,7.52
2023-01-03T12:52:58.549Z,7.56
2023-01-03T12:55:42.204Z,7.56
2023-01-03T12:58:25.420Z,7.58
2023-01-03T13:00:58.878Z,7.55
2023-01-03T13:03:40.534Z,7.67
2023-01-03T13:06:21.790Z,7.74
2023-01-03T13:09:04.289Z,7.79
2023-01-03T13:11:37.585Z,7.74
2023-01-03T13:14:21.259Z,7.54
2023-01-03T13:16:49.632Z,7.66
2023-01-03T13:19:22.462Z,7.75
2023-01-03T13:22:27.872Z,7.86
2023-01-03T13:24:54.659Z,7.88
2023-01-03T13:27:48.478Z,7.96
2023-01-03T13:30:22.237Z,8.02
2023-01-03T13:33:16.795Z,8.27
2023-01-03T13:35:43.375Z,8.41
2023-01-03T13:38:39.058Z,8.37
2023-01-03T13:41:27.060Z,8.25
2023-01-03T13:43:54.851Z,8.30
2023-01-03T13:46:26.005Z,8.16
2023-01-03T13:48:58.919Z,8.01
2023-01-03T13:51:27.544Z,8.04
2023-01-03T13:54:02.072Z,8.09
2023-01-03T13:56:52.857Z,7.97
2023-01-03T13:59:32.021Z,7.83
2023-01-03T14:02:10.577Z,7.84
2023-01-03T14:05:28.331Z,7.79
2023-01-03T14:08:19.456Z,7.75
2023-01-03T14:11:27.948Z,7.76
2023-01-03T14:13:59.170Z,7.63
2023-01-03T14:16:53.167Z,7.65
2023-01-03T14:19:24.220Z,7.60
2023-01-03T14:21:57.862Z,7.53
2023-01-03T14:24:30.397Z,7.62
2023-01-03T14:27:08.899Z,7.44
2023-01-03T14:29:41.964Z,7.43
2023-01-03T14:32:34.414Z,7.43
2023-01-03T14:35:02.514Z,7.41
2023-01-03T14:37:30.318Z,7.44
2023-01-03T14:39:59.885Z,7.29
2023-01-03T14:42:27.124Z,7.28
2023-01-03T14:44:59.693Z,7.24
2023-01-03T14:47:32.629Z,7.17
2023-01-03T14:49:59.840Z,7.18
2023-01-03T14:52:35.050Z,7.22
2023-01-03T14:55:07.248Z,7.17
2023-01-03T14:57:38.980Z,7.05
2023-01-03T15:00:07.843Z,7.08
2023-01-03T15:02:39.148Z,7.12
2023-01-03T15:05:28.495Z,7.12
2023-01-03T15:08:06.784Z,7.09
2023-01-03T15:11:06.024Z,7.07
2023-01-03T15:13:43.517Z,7.05
2023-01-03T15:16:29.783Z,7.02
2023-01-03T15:19:27.067Z,6.99
2023-01-03T15:22:13.454Z,7.02
2023-01-03T15:24:47.005Z,7.00
2023-01-03T15:27:38.356Z,7.00
2023-01-03T15:30:15.163Z,7.02
2023-01-03T15:32:49.778Z,7.06
2023-01-03T15:35:43.049Z,7.01
2023-01-03T15:38:31.980Z,6.97
2023-01-03T15:40:59.258Z,6.91
2023-01-03T15:43:36.540Z,6.91
2023-01-03T15:46:09.102Z,6.94
2023-01-03T15:48:36.417Z,6.99
2023-01-03T15:51:04.896Z,6.96
2023-01-03T15:53:42.842Z,6.99
2023-01-03T15:56:24.324Z,6.97
2023-01-03T15:58:54.663Z,6.92
2023-01-03T16:01:23.178Z,6.88
2023-01-03T16:03:51.881Z,6.93
2023-01-03T16:06:18.672Z,6.91
2023-01-03T16:08:46.286Z,6.92
2023-01-03T16:11:19.396Z,6.93
2023-01-03T16:13:52.961Z,6.93
2023-01-03T16:16:24.432Z,6.95
2023-01-03T16:18:51.381Z,6.92
2023-01-03T16:21:18.159Z,6.92
2023-01-03T16:23:44.762Z,6.89
2023-01-03T16:26:11.378Z,6.92
2023-01-03T16:28:38.089Z,6.86
2023-01-03T16:31:18.705Z,6.87
2023-01-03T16:33:47.747Z,6.92
2023-01-03T16:36:29.525Z,6.87
2023-01-03T16:38:56.223Z,6.88
2023-01-03T16:41:23.010Z,6.89
2023-01-03T16:43:49.805Z,6.86
2023-01-03T16:46:20.351Z,6.85
2023-01-03T16:48:52.352Z,6.86
2023-01-03T16:51:24.521Z,6.83
2023-01-03T16:53:52.351Z,6.80
2023-01-03T16:56:19.200Z,6.80
2023-01-03T16:58:45.832Z,6.75
2023-01-03T17:01:13.774Z,6.66
2023-01-03T17:03:42.208Z,6.67
2023-01-03T17:06:35.378Z,6.61
2023-01-03T17:09:11.822Z,6.55
2023-01-03T17:11:38.746Z,6.53
2023-01-03T17:14:05.839Z,6.53
2023-01-03T17:16:34.048Z,6.52
2023-01-03T17:19:00.733Z,6.45
2023-01-03T17:21:32.891Z,6.45
2023-01-03T17:24:11.202Z,6.43
2023-01-03T17:26:37.985Z,6.40
2023-01-03T17:29:06.977Z,6.35
2023-01-03T17:31:33.731Z,6.33
2023-01-03T17:34:00.456Z,6.33
2023-01-03T17:36:30.847Z,6.30
2023-01-03T17:39:02.111Z,6.22
2023-01-03T17:41:29.857Z,6.23
2023-01-03T17:43:56.684Z,6.20
2023-01-03T17:46:44.412Z,6.21
2023-01-03T17:49:24.465Z,6.15
2023-01-03T17:51:51.980Z,6.10
2023-01-03T17:54:27.552Z,6.10
2023-01-03T17:56:55.976Z,6.07
2023-01-03T17:59:22.652Z,6.02
2023-01-03T18:01:52.365Z,6.03
2023-01-03T18:04:19.553Z,6.02
2023-01-03T18:06:54.957Z,6.03
2023-01-03T18:09:22.886Z,6.06
2023-01-03T18:11:49.823Z,6.08
2023-01-03T18:14:16.577Z,6.06
2023-01-03T18:16:43.636Z,6.13
2023-01-03T18:19:10.969Z,6.08
2023-01-03T18:21:38.147Z,6.10
2023-01-03T18:24:10.193Z,6.12
2023-01-03T18:26:43.665Z,6.15
2023-01-03T18:29:13.522Z,6.14
2023-01-03T18:31:40.223Z,6.18
2023-01-03T18:34:06.909Z,6.19
2023-01-03T18:36:49.712Z,6.20
2023-01-03T18:39:25.401Z,6.21
2023-01-03T18:41:52.388Z,6.23
2023-01-03T18:44:22.099Z,6.25
2023-01-03T18:46:50.016Z,6.25
2023-01-03T18:49:17.339Z,6.29
2023-01-03T18:51:44.492Z,6.29
2023-01-03T18:54:18.203Z,6.28
2023-01-03T18:56:45.149Z,6.28
2023-01-03T18:59:27.041Z,6.29
2023-01-03T19:01:54.725Z,6.31
2023-01-03T19:04:21.785Z,6.29
2023-01-03T19:06:51.933Z,6.27
2023-01-03T19:09:24.925Z,6.23
2023-01-03T19:11:53.864Z,6.25
2023-01-03T19:14:20.559Z,6.25
2023-01-03T19:16:47.212Z,6.25
2023-01-03T19:19:13.893Z,6.23
2023-01-03T19:21:42.721Z,6.27
2023-01-03T19:24:22.847Z,6.29
2023-01-03T19:27:06.724Z,6.24
2023-01-03T19:29:37.150Z,6.23
2023-01-03T19:32:09.898Z,6.20
2023-01-03T19:34:36.601Z,6.21
2023-01-03T19:37:03.388Z,6.21
2023-01-03T19:39:36.794Z,6.23
2023-01-03T19:42:24.572Z,6.20
2023-01-03T19:44:51.414Z,6.19
2023-01-03T19:47:20.264Z,6.20
2023-01-03T19:49:47.671Z,6.20
2023-01-03T19:52:15.946Z,6.23
2023-01-03T19:54:43.043Z,6.23
2023-01-03T19:57:33.275Z,6.21
2023-01-03T20:00:01.797Z,6.24
2023-01-03T20:02:40.794Z,6.22
2023-01-03T20:05:26.835Z,6.21
2023-01-03T20:07:53.741Z,6.19
2023-01-03T20:10:24.092Z,6.14
2023-01-03T20:12:53.849Z,6.14
2023-01-03T20:15:26.006Z,6.11
2023-01-03T20:17:53.837Z,6.14
2023-01-03T20:20:21.982Z,6.13
2023-01-03T20:23:06.696Z,6.13
2023-01-03T20:25:35.528Z,6.11
2023-01-03T20:28:02.375Z,6.11
2023-01-03T20:30:31.223Z,6.09
2023-01-03T20:32:58.093Z,6.02
2023-01-03T20:38:16.808Z,6.02
2023-01-03T20:40:43.477Z,6.04
2023-01-03T20:43:13.729Z,6.00
2023-01-03T20:45:40.807Z,6.00
2023-01-03T20:48:25.611Z,5.94
2023-01-03T20:50:53.216Z,5.89
2023-01-03T20:53:26.546Z,5.90
2023-01-03T20:55:54.020Z,5.85
2023-01-03T20:58:25.325Z,5.86
2023-01-03T21:00:56.776Z,5.86
2023-01-03T21:03:28.730Z,5.84
2023-01-03T21:05:56.269Z,5.81
2023-01-03T21:08:41.241Z,5.72
2023-01-03T21:11:07.872Z,5.69
2023-01-03T21:13:40.755Z,5.69
2023-01-03T21:16:17.478Z,5.66
2023-01-03T21:18:44.135Z,5.55
2023-01-03T21:21:19.707Z,5.55
2023-01-03T21:23:46.880Z,5.51
2023-01-03T21:26:13.636Z,5.50
2023-01-03T21:28:40.283Z,5.51
2023-01-03T21:31:07.175Z,5.52
2023-01-03T21:33:33.833Z,5.53
2023-01-03T21:36:00.487Z,5.44
2023-01-03T21:38:27.350Z,5.40
2023-01-03T21:40:54.456Z,5.41
2023-01-03T21:43:21.071Z,5.37
2023-01-03T21:45:52.910Z,5.34
2023-01-03T21:48:19.602Z,5.32
2023-01-03T21:50:47.834Z,5.33
2023-01-03T21:53:17.496Z,5.32
2023-01-03T21:55:44.395Z,5.32
2023-01-03T21:58:14.567Z,5.29
2023-01-03T22:00:41.676Z,5.30
2023-01-03T22:03:33.989Z,5.28
2023-01-03T22:06:14.056Z,5.23
2023-01-03T22:08:40.930Z,5.21
2023-01-03T22:11:08.249Z,5.24
2023-01-03T22:13:36.145Z,5.17
2023-01-03T22:16:08.035Z,5.16
2023-01-03T22:18:35.647Z,5.13
2023-01-03T22:21:07.499Z,5.12
2023-01-03T22:23:34.258Z,5.12
2023-01-03T22:26:06.948Z,5.24
2023-01-03T22:28:40.093Z,5.20
2023-01-03T22:31:14.171Z,5.17
2023-01-03T22:33:40.924Z,5.16
2023-01-03T22:36:08.583Z,5.13
2023-01-03T22:38:36.356Z,5.10
2023-01-03T22:41:08.410Z,5.12
2023-01-03T22:43:35.367Z,5.11
2023-01-03T22:46:06.533Z,5.11
2023-01-03T22:48:33.124Z,5.10
2023-01-03T22:51:11.405Z,5.06
2023-01-03T22:53:39.900Z,5.07
2023-01-03T22:56:08.588Z,5.20
2023-01-03T22:58:36.963Z,5.12
2023-01-03T23:01:30.185Z,5.11
2023-01-03T23:04:03.262Z,5.11
2023-01-03T23:06:31.737Z,5.06
2023-01-03T23:08:58.709Z,5.14
2023-01-03T23:11:46.275Z,5.15
2023-01-03T23:14:18.109Z,5.08
2023-01-03T23:16:45.860Z,5.06
2023-01-03T23:19:15.540Z,5.07
2023-01-03T23:21:42.988Z,5.06
2023-01-03T23:24:16.710Z,5.11
2023-01-03T23:26:43.463Z,5.07
2023-01-03T23:29:10.966Z,5.15
2023-01-03T23:31:37.771Z,5.13
2023-01-03T23:34:04.366Z,5.16
2023-01-03T23:36:30.990Z,5.17
2023-01-03T23:38:57.947Z,5.12
2023-01-03T23:41:24.918Z,5.14
2023-01-03T23:43:51.856Z,5.13
2023-01-03T23:46:21.919Z,5.18
2023-01-03T23:48:49.366Z,5.22
2023-01-03T23:51:16.068Z,5.24
2023-01-03T23:53:43.782Z,5.17
2023-01-03T23:56:15.829Z,5.16
2023-01-03T23:58:42.865Z,5.13
